createdAt,value
2023-04-17T00:00:13.020Z,10.30
2023-04-17T00:02:41.362Z,10.30
2023-04-17T00:05:10.580Z,10.30
2023-04-17T00:07:39.354Z,10.30
2023-04-17T00:10:09.525Z,10.30
2023-04-17T00:12:39.426Z,10.30
2023-04-17T00:15:08.722Z,10.30
2023-04-17T00:17:36.894Z,10.30
2023-04-17T00:20:09.994Z,10.30
2023-04-17T00:22:38.451Z,10.30
2023-04-17T00:25:07.416Z,10.30
2023-04-17T00:27:35.645Z,10.40
2023-04-17T00:30:05.987Z,10.30
2023-04-17T00:32:34.151Z,10.30
2023-04-17T00:35:02.426Z,10.30
2023-04-17T00:37:30.555Z,10.20
2023-04-17T00:39:58.755Z,10.50
2023-04-17T00:42:27.045Z,10.40
2023-04-17T00:44:55.214Z,10.20
2023-04-17T00:47:26.483Z,10.20
2023-04-17T00:49:54.731Z,10.20
2023-04-17T00:52:30.350Z,10.20
2023-04-17T00:55:00.069Z,10.40
2023-04-17T00:59:58.334Z,10.20
2023-04-17T01:07:25.538Z,10.30
2023-04-17T01:09:53.790Z,10.30
2023-04-17T01:12:23.650Z,10.20
2023-04-17T01:14:52.144Z,10.20
2023-04-17T01:19:51.778Z,10.50
2023-04-17T01:22:21.086Z,10.30
2023-04-17T01:24:50.941Z,10.20
2023-04-17T01:27:19.100Z,10.20
2023-04-17T01:29:47.959Z,10.20
2023-04-17T01:32:16.228Z,10.10
2023-04-17T01:37:12.887Z,10.10
2023-04-17T01:39:41.073Z,10.20
2023-04-17T01:42:10.776Z,10.10
2023-04-17T01:44:39.129Z,10.10
2023-04-17T01:47:07.261Z,10.30
2023-04-17T01:49:35.502Z,10.30
2023-04-17T01:52:03.631Z,10.30
2023-04-17T01:54:31.771Z,10.10
2023-04-17T01:59:29.721Z,10.10
2023-04-17T02:01:58.008Z,10.10
2023-04-17T02:04:26.381Z,10.10
2023-04-17T02:09:23.126Z,10.10
2023-04-17T02:14:19.955Z,10.20
2023-04-17T02:16:50.237Z,10.20
2023-04-17T02:19:18.423Z,10.20
2023-04-17T02:21:46.545Z,10.20
2023-04-17T02:24:14.717Z,10.00
2023-04-17T02:26:42.839Z,10.00
2023-04-17T02:39:09.621Z,10.20
2023-04-17T02:41:37.771Z,10.10
2023-04-17T02:44:06.090Z,10.10
2023-04-17T02:46:34.376Z,10.10
2023-04-17T02:49:02.607Z,10.10
2023-04-17T02:51:32.125Z,10.10
2023-04-17T02:54:00.305Z,10.20
2023-04-17T03:03:54.978Z,10.10
2023-04-17T03:08:53.815Z,10.10
2023-04-17T03:11:22.010Z,10.00
2023-04-17T03:13:50.289Z,10.00
2023-04-17T03:21:15.186Z,9.90
2023-04-17T03:23:43.843Z,9.90
2023-04-17T03:26:13.446Z,9.90
2023-04-17T03:31:10.008Z,9.90
2023-04-17T03:33:38.824Z,9.90
2023-04-17T03:36:07.508Z,9.90
2023-04-17T03:38:36.987Z,9.90
2023-04-17T03:41:05.242Z,9.90
2023-04-17T03:43:34.718Z,9.80
2023-04-17T03:46:02.941Z,9.80
2023-04-17T03:48:31.408Z,9.80
2023-04-17T03:50:59.579Z,9.80
2023-04-17T03:53:27.701Z,9.80
2023-04-17T03:55:55.922Z,9.80
2023-04-17T03:58:24.095Z,9.80
2023-04-17T04:00:55.588Z,9.80
2023-04-17T04:03:23.886Z,9.80
2023-04-17T04:05:52.180Z,9.80
2023-04-17T04:08:20.450Z,9.80
2023-04-17T04:10:48.792Z,9.80
2023-04-17T04:13:17.007Z,9.80
2023-04-17T04:15:45.228Z,9.80
2023-04-17T04:18:14.743Z,9.80
2023-04-17T04:20:42.906Z,9.80
2023-04-17T04:25:41.769Z,9.80
2023-04-17T04:28:10.604Z,10.00
2023-04-17T04:30:39.703Z,9.90
2023-04-17T04:33:08.450Z,9.70
2023-04-17T04:35:38.569Z,9.70
2023-04-17T04:38:06.862Z,9.70
2023-04-17T04:40:38.172Z,9.70
2023-04-17T04:43:06.833Z,9.70
2023-04-17T04:45:35.016Z,9.70
2023-04-17T04:48:03.441Z,9.70
2023-04-17T04:50:32.027Z,9.70
2023-04-17T04:53:01.600Z,9.70
2023-04-17T04:55:30.764Z,9.70
2023-04-17T04:57:58.972Z,9.70
2023-04-17T05:00:27.172Z,9.70
2023-04-17T05:02:55.678Z,9.70
2023-04-17T05:07:53.625Z,9.70
2023-04-17T05:10:23.292Z,9.70
2023-04-17T05:12:51.426Z,9.70
2023-04-17T05:15:19.710Z,9.70
2023-04-17T05:20:16.373Z,9.70
2023-04-17T05:22:44.571Z,9.70
2023-04-17T05:25:12.693Z,9.80
2023-04-17T05:30:11.677Z,9.70
2023-04-17T05:32:39.866Z,9.70
2023-04-17T05:35:08.543Z,9.70
2023-04-17T05:37:36.642Z,9.80
2023-04-17T05:40:07.207Z,9.70
2023-04-17T05:42:35.479Z,9.80
2023-04-17T05:45:05.769Z,9.80
2023-04-17T05:47:36.808Z,9.80
2023-04-17T05:50:05.661Z,9.70
2023-04-17T05:52:33.906Z,9.80
2023-04-17T05:55:02.094Z,9.80
2023-04-17T05:57:30.464Z,9.80
2023-04-17T05:59:58.580Z,9.80
2023-04-17T06:02:28.309Z,9.80
2023-04-17T06:04:58.482Z,9.80
2023-04-17T06:07:27.277Z,9.90
2023-04-17T06:09:55.608Z,9.90
2023-04-17T06:12:23.803Z,9.90
2023-04-17T06:14:52.055Z,9.90
2023-04-17T06:17:20.375Z,9.90
2023-04-17T06:19:49.974Z,10.10
2023-04-17T06:22:18.145Z,10.10
2023-04-17T06:27:14.762Z,10.00
2023-04-17T06:29:42.967Z,10.00
2023-04-17T06:32:11.157Z,10.00
2023-04-17T06:34:48.928Z,10.00
2023-04-17T06:37:27.936Z,10.00
2023-04-17T06:39:56.066Z,10.00
2023-04-17T06:42:24.927Z,10.20
2023-04-17T06:44:54.525Z,10.10
2023-04-17T06:47:22.730Z,10.00
2023-04-17T06:49:51.086Z,10.00
2023-04-17T06:52:20.248Z,10.10
2023-04-17T06:54:49.795Z,10.10
2023-04-17T06:57:17.955Z,10.10
2023-04-17T06:59:46.188Z,10.10
2023-04-17T07:02:14.626Z,10.10
2023-04-17T07:04:43.039Z,10.20
2023-04-17T07:07:12.628Z,10.20
2023-04-17T07:09:41.949Z,10.20
2023-04-17T07:12:11.458Z,10.30
2023-04-17T07:14:40.697Z,10.30
2023-04-17T07:17:08.974Z,10.30
2023-04-17T07:19:37.956Z,10.30
2023-04-17T07:24:35.165Z,10.30
2023-04-17T07:29:33.996Z,10.20
2023-04-17T07:32:02.183Z,10.20
2023-04-17T07:34:31.343Z,10.30
2023-04-17T07:36:59.533Z,10.30
2023-04-17T13:59:09.090Z,19.40
2023-04-17T14:04:08.031Z,19.40
2023-04-17T14:06:38.715Z,19.80
2023-04-17T14:09:07.516Z,19.90
2023-04-17T14:11:35.675Z,20.30
